Time,TemperatureF,DewpointF,PressureIn,WindDirection,WindDirectionDegrees,WindSpeedMPH,WindSpeedGustMPH,Humidity,HourlyPrecipIn,Conditions,Clouds,dailyrainin,SoftwareType,DateUTC
2013-01-26 00:01:00,12.1,5.1,30.18,NW,315,3.1,6.9,73,0.00,,,0.00,WUHU216HW,2013-01-26 06:01:00,
2013-01-26 00:06:00,12.1,5.1,30.17,NW,315,4.7,6.9,73,0.00,,,0.00,WUHU216HW,2013-01-26 06:06:00,
2013-01-26 00:12:00,11.9,4.9,30.18,NW,315,3.8,5.8,73,0.00,,,0.00,WUHU216HW,2013-01-26 06:12:00,
2013-01-26 00:17:00,11.9,5.1,30.18,NW,315,3.4,5.4,74,0.00,,,0.00,WUHU216HW,2013-01-26 06:17:00,
2013-01-26 00:22:00,11.9,5.1,30.18,NNW,338,5.4,6.0,74,0.00,,,0.00,WUHU216HW,2013-01-26 06:22:00,
2013-01-26 00:27:00,11.9,5.1,30.18,NW,315,4.7,6.5,74,0.00,,,0.00,WUHU216HW,2013-01-26 06:27:00,
2013-01-26 00:32:00,11.9,5.1,30.18,NW,315,4.0,6.7,74,0.00,,,0.00,WUHU216HW,2013-01-26 06:32:00,
2013-01-26 00:36:00,11.7,5.0,30.18,NW,315,3.6,6.7,74,0.00,,,0.00,WUHU216HW,2013-01-26 06:36:00,
2013-01-26 00:42:00,11.5,4.8,30.18,NW,315,4.7,5.8,74,0.00,,,0.00,WUHU216HW,2013-01-26 06:42:00,
2013-01-26 00:47:00,11.5,4.8,30.19,NW,315,3.4,5.8,74,0.00,,,0.00,WUHU216HW,2013-01-26 06:47:00,
2013-01-26 00:52:00,11.3,4.6,30.19,NW,315,3.6,6.7,74,0.00,,,0.00,WUHU216HW,2013-01-26 06:52:00,
2013-01-26 00:57:00,11.3,4.6,30.19,NW,315,5.1,6.7,74,0.00,,,0.00,WUHU216HW,2013-01-26 06:57:00,
2013-01-26 01:02:00,11.2,4.4,30.19,NW,315,5.4,5.4,74,0.00,,,0.00,WUHU216HW,2013-01-26 07:02:00,
2013-01-26 01:07:00,11.2,4.7,30.19,NW,315,4.7,6.0,75,0.00,,,0.00,WUHU216HW,2013-01-26 07:07:00,
2013-01-26 01:12:00,11.2,4.7,30.19,NNW,338,2.9,6.0,75,0.00,,,0.00,WUHU216HW,2013-01-26 07:12:00,
2013-01-26 01:17:00,11.0,4.5,30.19,NNW,338,4.0,5.4,75,0.00,,,0.00,WUHU216HW,2013-01-26 07:17:00,
2013-01-26 01:22:00,11.0,4.5,30.19,NW,315,4.7,5.4,75,0.00,,,0.00,WUHU216HW,2013-01-26 07:22:00,
2013-01-26 01:27:00,11.0,4.5,30.19,NNW,338,2.7,5.6,75,0.00,,,0.00,WUHU216HW,2013-01-26 07:27:00,
2013-01-26 01:32:00,10.6,4.1,30.20,NW,315,2.9,5.6,75,0.00,,,0.00,WUHU216HW,2013-01-26 07:32:00,
2013-01-26 01:37:00,10.4,4.0,30.20,NNW,338,3.8,5.8,75,0.00,,,0.00,WUHU216HW,2013-01-26 07:37:00,
2013-01-26 01:42:00,10.4,4.0,30.20,NW,315,4.5,5.8,75,0.00,,,0.00,WUHU216HW,2013-01-26 07:42:00,
2013-01-26 01:47:00,10.4,4.2,30.20,NW,315,3.6,5.4,76,0.00,,,0.00,WUHU216HW,2013-01-26 07:47:00,
2013-01-26 01:52:00,10.3,4.1,30.20,NW,315,3.6,4.7,76,0.00,,,0.00,WUHU216HW,2013-01-26 07:52:00,
2013-01-26 01:57:00,10.1,4.0,30.21,NNW,338,2.9,4.7,76,0.00,,,0.00,WUHU216HW,2013-01-26 07:57:00,
2013-01-26 02:02:00,9.9,3.8,30.21,NW,315,3.4,4.7,76,0.00,,,0.00,WUHU216HW,2013-01-26 08:02:00,
2013-01-26 02:07:00,9.9,3.8,30.21,NW,315,2.5,4.5,76,0.00,,,0.00,WUHU216HW,2013-01-26 08:07:00,
2013-01-26 02:12:00,9.7,3.6,30.21,NW,315,3.4,4.5,76,0.00,,,0.00,WUHU216HW,2013-01-26 08:12:00,
2013-01-26 02:16:00,9.7,3.9,30.21,NW,315,2.5,4.0,77,0.00,,,0.00,WUHU216HW,2013-01-26 08:16:00,
2013-01-26 02:21:00,9.7,3.9,30.21,NNW,338,3.1,3.8,77,0.00,,,0.00,WUHU216HW,2013-01-26 08:21:00,
2013-01-26 02:26:00,9.9,4.1,30.21,NW,315,4.0,4.5,77,0.00,,,0.00,WUHU216HW,2013-01-26 08:26:00,
2013-01-26 02:31:00,10.1,4.2,30.21,NNW,338,3.6,5.8,77,0.00,,,0.00,WUHU216HW,2013-01-26 08:31:00,
2013-01-26 02:37:00,9.9,4.1,30.22,NW,315,3.1,5.8,77,0.00,,,0.00,WUHU216HW,2013-01-26 08:37:00,
2013-01-26 02:41:00,9.9,3.8,30.22,NW,315,3.6,5.6,76,0.00,,,0.00,WUHU216HW,2013-01-26 08:41:00,
2013-01-26 02:46:00,9.7,3.6,30.22,NW,315,4.9,5.4,76,0.00,,,0.00,WUHU216HW,2013-01-26 08:46:00,
2013-01-26 02:51:00,9.5,3.7,30.22,NW,315,4.3,5.4,77,0.00,,,0.00,WUHU216HW,2013-01-26 08:51:00,
2013-01-26 02:56:00,9.4,3.6,30.22,NW,315,6.0,6.0,77,0.00,,,0.00,WUHU216HW,2013-01-26 08:56:00,
2013-01-26 03:01:00,9.4,3.6,30.22,NW,315,4.7,6.0,77,0.00,,,0.00,WUHU216HW,2013-01-26 09:01:00,
2013-01-26 03:06:00,9.4,3.6,30.22,NW,315,4.5,6.3,77,0.00,,,0.00,WUHU216HW,2013-01-26 09:06:00,
2013-01-26 03:11:00,9.5,3.7,30.22,NW,315,4.9,6.3,77,0.00,,,0.00,WUHU216HW,2013-01-26 09:11:00,
2013-01-26 03:16:00,9.4,3.6,30.23,NW,315,3.6,5.8,77,0.00,,,0.00,WUHU216HW,2013-01-26 09:16:00,
2013-01-26 03:21:00,9.4,3.6,30.23,NNW,338,3.4,4.9,77,0.00,,,0.00,WUHU216HW,2013-01-26 09:21:00,
2013-01-26 03:26:00,9.2,3.4,30.23,NW,315,2.7,4.7,77,0.00,,,0.00,WUHU216HW,2013-01-26 09:26:00,
2013-01-26 03:31:00,9.0,3.2,30.23,NW,315,3.1,4.5,77,0.00,,,0.00,WUHU216HW,2013-01-26 09:31:00,
2013-01-26 03:36:00,9.0,3.5,30.24,WNW,293,2.7,4.0,78,0.00,,,0.00,WUHU216HW,2013-01-26 09:36:00,
2013-01-26 03:41:00,9.0,3.5,30.24,NW,315,3.1,4.0,78,0.00,,,0.00,WUHU216HW,2013-01-26 09:41:00,
2013-01-26 03:46:00,9.0,3.5,30.23,WNW,293,2.7,3.4,78,0.00,,,0.00,WUHU216HW,2013-01-26 09:46:00,
2013-01-26 03:51:00,9.0,3.5,30.23,West,270,0.9,3.4,78,0.00,,,0.00,WUHU216HW,2013-01-26 09:51:00,
2013-01-26 03:56:00,8.8,3.3,30.23,NW,315,0.9,2.7,78,0.00,,,0.00,WUHU216HW,2013-01-26 09:56:00,
2013-01-26 04:01:00,8.8,3.7,30.23,WNW,293,1.3,2.5,79,0.00,,,0.00,WUHU216HW,2013-01-26 10:01:00,
2013-01-26 04:06:00,8.8,3.3,30.23,NW,315,1.6,2.5,78,0.00,,,0.00,WUHU216HW,2013-01-26 10:06:00,
2013-01-26 04:11:00,8.6,3.3,30.23,NW,315,1.3,2.5,78,0.00,,,0.00,WUHU216HW,2013-01-26 10:11:00,
2013-01-26 04:16:00,8.6,3.5,30.24,NNW,338,2.2,2.7,79,0.00,,,0.00,WUHU216HW,2013-01-26 10:16:00,
2013-01-26 04:21:00,8.6,3.5,30.24,NW,315,2.0,2.9,79,0.00,,,0.00,WUHU216HW,2013-01-26 10:21:00,
2013-01-26 04:26:00,8.3,2.9,30.23,NNW,338,1.8,3.1,78,0.00,,,0.00,WUHU216HW,2013-01-26 10:26:00,
2013-01-26 04:31:00,7.9,2.5,30.23,NNW,338,1.8,3.1,78,0.00,,,0.00,WUHU216HW,2013-01-26 10:31:00,
2013-01-26 04:36:00,7.9,2.5,30.23,North,0,2.5,2.7,78,0.00,,,0.00,WUHU216HW,2013-01-26 10:36:00,
2013-01-26 04:41:00,7.7,2.4,30.23,NNW,338,0.9,2.7,78,0.00,,,0.00,WUHU216HW,2013-01-26 10:41:00,
2013-01-26 04:46:00,7.6,2.4,30.23,NW,315,1.1,1.8,79,0.00,,,0.00,WUHU216HW,2013-01-26 10:46:00,
2013-01-26 04:51:00,7.6,2.2,30.23,NW,315,1.1,1.8,78,0.00,,,0.00,WUHU216HW,2013-01-26 10:51:00,
2013-01-26 04:56:00,7.2,1.8,30.24,NW,315,1.8,1.8,78,0.00,,,0.00,WUHU216HW,2013-01-26 10:56:00,
2013-01-26 05:01:00,7.2,1.8,30.24,NW,315,1.3,2.2,78,0.00,,,0.00,WUHU216HW,2013-01-26 11:01:00,
2013-01-26 05:06:00,7.6,2.7,30.24,West,270,1.8,3.4,80,0.00,,,0.00,WUHU216HW,2013-01-26 11:06:00,
2013-01-26 05:11:00,7.7,2.9,30.24,West,270,0.9,3.4,80,0.00,,,0.00,WUHU216HW,2013-01-26 11:11:00,
2013-01-26 05:16:00,7.7,2.6,30.24,West,270,0.4,2.0,79,0.00,,,0.00,WUHU216HW,2013-01-26 11:16:00,
2013-01-26 05:21:00,7.6,2.4,30.25,NW,315,0.4,1.1,79,0.00,,,0.00,WUHU216HW,2013-01-26 11:21:00,
2013-01-26 05:26:00,7.2,1.8,30.25,NW,315,0.2,0.9,78,0.00,,,0.00,WUHU216HW,2013-01-26 11:26:00,
2013-01-26 05:31:00,6.8,1.5,30.25,NW,315,0.9,0.9,78,0.00,,,0.00,WUHU216HW,2013-01-26 11:31:00,
2013-01-26 05:36:00,6.8,1.5,30.25,NW,315,0.4,1.8,78,0.00,,,0.00,WUHU216HW,2013-01-26 11:36:00,
2013-01-26 05:41:00,6.8,1.7,30.26,NW,315,0.4,1.8,79,0.00,,,0.00,WUHU216HW,2013-01-26 11:41:00,
2013-01-26 05:46:00,6.5,1.1,30.26,NNW,338,0.0,1.1,78,0.00,,,0.00,WUHU216HW,2013-01-26 11:46:00,
2013-01-26 05:51:00,6.3,1.2,30.26,NNW,338,0.0,0.7,79,0.00,,,0.00,WUHU216HW,2013-01-26 11:51:00,
2013-01-26 05:56:00,6.5,1.6,30.27,West,270,0.0,0.4,80,0.00,,,0.00,WUHU216HW,2013-01-26 11:56:00,
2013-01-26 06:01:00,6.7,2.1,30.27,WSW,248,0.4,1.1,81,0.00,,,0.00,WUHU216HW,2013-01-26 12:01:00,
2013-01-26 06:06:00,6.8,2.0,30.27,West,270,1.3,1.3,80,0.00,,,0.00,WUHU216HW,2013-01-26 12:06:00,
2013-01-26 06:11:00,6.8,2.0,30.27,WSW,248,1.1,2.9,80,0.00,,,0.00,WUHU216HW,2013-01-26 12:11:00,
2013-01-26 06:16:00,6.8,2.0,30.27,West,270,0.4,2.9,80,0.00,,,0.00,WUHU216HW,2013-01-26 12:16:00,
2013-01-26 06:21:00,6.8,2.0,30.27,West,270,0.4,2.5,80,0.00,,,0.00,WUHU216HW,2013-01-26 12:21:00,
2013-01-26 06:26:00,6.8,2.0,30.27,WSW,248,0.4,1.6,80,0.00,,,0.00,WUHU216HW,2013-01-26 12:26:00,
2013-01-26 06:31:00,6.8,2.0,30.27,NNW,338,0.4,1.1,80,0.00,,,0.00,WUHU216HW,2013-01-26 12:31:00,
2013-01-26 06:36:00,6.5,1.6,30.28,NW,315,1.1,2.7,80,0.00,,,0.00,WUHU216HW,2013-01-26 12:36:00,
2013-01-26 06:41:00,6.8,2.0,30.27,NW,315,2.5,3.4,80,0.00,,,0.00,WUHU216HW,2013-01-26 12:41:00,
2013-01-26 06:46:00,7.0,2.2,30.28,WNW,293,0.9,3.4,80,0.00,,,0.00,WUHU216HW,2013-01-26 12:46:00,
2013-01-26 06:51:00,6.8,2.0,30.28,WNW,293,0.0,2.5,80,0.00,,,0.00,WUHU216HW,2013-01-26 12:51:00,
2013-01-26 06:56:00,6.7,1.8,30.28,WNW,293,0.0,0.9,80,0.00,,,0.00,WUHU216HW,2013-01-26 12:56:00,
2013-01-26 07:01:00,6.5,1.6,30.28,NW,315,2.2,2.2,80,0.00,,,0.00,WUHU216HW,2013-01-26 13:01:00,
2013-01-26 07:06:00,6.7,1.8,30.28,WNW,293,2.0,3.8,80,0.00,,,0.00,WUHU216HW,2013-01-26 13:06:00,
2013-01-26 07:11:00,6.8,2.0,30.29,SW,225,0.7,3.8,80,0.00,,,0.00,WUHU216HW,2013-01-26 13:11:00,
2013-01-26 07:16:00,6.8,2.0,30.29,NW,315,0.7,3.4,80,0.00,,,0.00,WUHU216HW,2013-01-26 13:16:00,
2013-01-26 07:21:00,6.8,2.0,30.29,West,270,0.0,1.3,80,0.00,,,0.00,WUHU216HW,2013-01-26 13:21:00,
2013-01-26 07:26:00,6.8,2.0,30.29,NNW,338,0.0,1.1,80,0.00,,,0.00,WUHU216HW,2013-01-26 13:26:00,
2013-01-26 07:31:00,6.7,1.8,30.29,North,0,0.0,1.1,80,0.00,,,0.00,WUHU216HW,2013-01-26 13:31:00,
2013-01-26 07:36:00,6.7,1.8,30.30,ENE,68,0.0,0.2,80,0.00,,,0.00,WUHU216HW,2013-01-26 13:36:00,
2013-01-26 07:41:00,6.3,1.2,30.31,ENE,68,0.0,0.0,79,0.00,,,0.00,WUHU216HW,2013-01-26 13:41:00,
2013-01-26 07:46:00,6.5,1.4,30.31,NNW,338,0.0,0.0,79,0.00,,,0.00,WUHU216HW,2013-01-26 13:46:00,
2013-01-26 07:51:00,6.7,1.5,30.31,NW,315,0.4,0.7,79,0.00,,,0.00,WUHU216HW,2013-01-26 13:51:00,
2013-01-26 07:56:00,6.8,2.0,30.31,West,270,0.0,0.7,80,0.00,,,0.00,WUHU216HW,2013-01-26 13:56:00,
2013-01-26 08:01:00,7.0,2.2,30.31,NW,315,0.0,0.4,80,0.00,,,0.00,WUHU216HW,2013-01-26 14:01:00,
2013-01-26 08:06:00,7.0,2.2,30.31,NW,315,0.7,1.1,80,0.00,,,0.00,WUHU216HW,2013-01-26 14:06:00,
2013-01-26 08:11:00,7.4,2.5,30.31,NNW,338,0.0,1.1,80,0.00,,,0.00,WUHU216HW,2013-01-26 14:11:00,
2013-01-26 08:16:00,7.6,2.7,30.31,NW,315,0.4,0.7,80,0.00,,,0.00,WUHU216HW,2013-01-26 14:16:00,
2013-01-26 08:21:00,7.7,2.9,30.31,NW,315,0.9,1.1,80,0.00,,,0.00,WUHU216HW,2013-01-26 14:21:00,
2013-01-26 08:26:00,8.1,3.0,30.32,NW,315,1.8,1.8,79,0.00,,,0.00,WUHU216HW,2013-01-26 14:26:00,
2013-01-26 08:31:00,8.6,3.5,30.32,WNW,293,1.6,2.2,79,0.00,,,0.00,WUHU216HW,2013-01-26 14:31:00,
2013-01-26 08:36:00,9.0,3.5,30.32,West,270,0.9,2.2,78,0.00,,,0.00,WUHU216HW,2013-01-26 14:36:00,
2013-01-26 08:41:00,9.5,4.3,30.32,NW,315,1.3,2.5,79,0.00,,,0.00,WUHU216HW,2013-01-26 14:41:00,
2013-01-26 08:46:00,9.7,3.9,30.32,West,270,1.8,2.5,77,0.00,,,0.00,WUHU216HW,2013-01-26 14:46:00,
2013-01-26 08:51:00,10.1,4.2,30.32,West,270,2.5,3.4,77,0.00,,,0.00,WUHU216HW,2013-01-26 14:51:00,
2013-01-26 08:56:00,10.4,4.2,30.32,WNW,293,4.0,4.0,76,0.00,,,0.00,WUHU216HW,2013-01-26 14:56:00,
2013-01-26 09:01:00,10.4,4.2,30.33,NW,315,2.9,5.1,76,0.00,,,0.00,WUHU216HW,2013-01-26 15:01:00,
2013-01-26 09:06:00,10.8,4.3,30.33,West,270,4.5,5.1,75,0.00,,,0.00,WUHU216HW,2013-01-26 15:06:00,
2013-01-26 09:11:00,11.2,4.7,30.32,WNW,293,4.3,4.7,75,0.00,,,0.00,WUHU216HW,2013-01-26 15:11:00,
2013-01-26 09:16:00,11.2,4.7,30.33,NW,315,3.4,5.4,75,0.00,,,0.00,WUHU216HW,2013-01-26 15:16:00,
2013-01-26 09:21:00,11.2,4.2,30.33,WSW,248,2.5,5.4,73,0.00,,,0.00,WUHU216HW,2013-01-26 15:21:00,
2013-01-26 09:26:00,11.3,4.3,30.33,WSW,248,2.7,3.8,73,0.00,,,0.00,WUHU216HW,2013-01-26 15:26:00,
2013-01-26 09:31:00,11.7,4.7,30.33,West,270,2.0,3.8,73,0.00,,,0.00,WUHU216HW,2013-01-26 15:31:00,
2013-01-26 09:36:00,11.9,4.9,30.33,NNW,338,1.6,3.8,73,0.00,,,0.00,WUHU216HW,2013-01-26 15:36:00,
2013-01-26 09:41:00,11.9,4.5,30.33,NW,315,3.6,4.0,72,0.00,,,0.00,WUHU216HW,2013-01-26 15:41:00,
2013-01-26 09:46:00,12.2,4.9,30.34,NW,315,2.7,4.0,72,0.00,,,0.00,WUHU216HW,2013-01-26 15:46:00,
2013-01-26 09:51:00,12.2,4.9,30.34,NNW,338,1.3,4.0,72,0.00,,,0.00,WUHU216HW,2013-01-26 15:51:00,
2013-01-26 09:56:00,12.6,5.0,30.34,WSW,248,2.0,4.7,71,0.00,,,0.00,WUHU216HW,2013-01-26 15:56:00,
2013-01-26 10:01:00,13.0,5.3,30.34,WNW,293,3.1,4.7,71,0.00,,,0.00,WUHU216HW,2013-01-26 16:01:00,
2013-01-26 10:06:00,13.0,5.3,30.34,NNW,338,2.5,4.3,71,0.00,,,0.00,WUHU216HW,2013-01-26 16:06:00,
2013-01-26 10:11:00,13.1,5.2,30.34,NW,315,0.4,4.3,70,0.00,,,0.00,WUHU216HW,2013-01-26 16:11:00,
2013-01-26 10:16:00,13.3,5.7,30.35,North,0,2.2,3.6,71,0.00,,,0.00,WUHU216HW,2013-01-26 16:16:00,
2013-01-26 10:21:00,13.7,6.0,30.35,WNW,293,2.0,4.5,71,0.00,,,0.00,WUHU216HW,2013-01-26 16:21:00,
2013-01-26 10:26:00,13.9,5.9,30.35,NW,315,2.0,4.5,70,0.00,,,0.00,WUHU216HW,2013-01-26 16:26:00,
2013-01-26 10:31:00,14.0,6.1,30.35,WNW,293,2.5,3.4,70,0.00,,,0.00,WUHU216HW,2013-01-26 16:31:00,
2013-01-26 10:36:00,14.4,6.5,30.35,NW,315,2.7,2.7,70,0.00,,,0.00,WUHU216HW,2013-01-26 16:36:00,
2013-01-26 10:41:00,14.8,6.1,30.35,North,0,1.1,3.4,68,0.00,,,0.00,WUHU216HW,2013-01-26 16:41:00,
2013-01-26 10:46:00,14.9,6.2,30.35,NW,315,2.5,3.4,68,0.00,,,0.00,WUHU216HW,2013-01-26 16:46:00,
2013-01-26 10:51:00,15.1,6.4,30.35,NW,315,2.2,3.4,68,0.00,,,0.00,WUHU216HW,2013-01-26 16:51:00,
2013-01-26 10:56:00,15.5,7.1,30.35,North,0,0.2,3.4,69,0.00,,,0.00,WUHU216HW,2013-01-26 16:56:00,
2013-01-26 11:01:00,16.2,7.7,30.35,NW,315,0.7,2.7,69,0.00,,,0.00,WUHU216HW,2013-01-26 17:01:00,
2013-01-26 11:06:00,16.6,7.7,30.35,NW,315,1.8,3.4,68,0.00,,,0.00,WUHU216HW,2013-01-26 17:06:00,
2013-01-26 11:11:00,16.6,7.5,30.35,North,0,1.1,3.4,67,0.00,,,0.00,WUHU216HW,2013-01-26 17:11:00,
2013-01-26 11:16:00,16.7,7.3,30.34,NNW,338,0.4,3.4,66,0.00,,,0.00,WUHU216HW,2013-01-26 17:16:00,
2013-01-26 11:21:00,16.9,7.5,30.34,NNE,23,0.0,3.4,66,0.00,,,0.00,WUHU216HW,2013-01-26 17:21:00,
2013-01-26 11:26:00,17.1,7.7,30.34,NW,315,2.2,2.2,66,0.00,,,0.00,WUHU216HW,2013-01-26 17:26:00,
2013-01-26 11:31:00,17.3,7.8,30.34,NW,315,0.9,2.9,66,0.00,,,0.00,WUHU216HW,2013-01-26 17:31:00,
2013-01-26 11:36:00,17.5,7.7,30.34,WNW,293,1.1,2.9,65,0.00,,,0.00,WUHU216HW,2013-01-26 17:36:00,
2013-01-26 11:41:00,17.8,8.0,30.34,WNW,293,0.0,3.1,65,0.00,,,0.00,WUHU216HW,2013-01-26 17:41:00,
2013-01-26 11:46:00,18.4,8.5,30.34,NW,315,1.1,3.1,65,0.00,,,0.00,WUHU216HW,2013-01-26 17:46:00,
2013-01-26 11:51:00,18.9,9.0,30.34,SW,225,2.2,2.2,65,0.00,,,0.00,WUHU216HW,2013-01-26 17:51:00,
2013-01-26 11:56:00,19.3,9.3,30.33,West,270,0.9,3.4,65,0.00,,,0.00,WUHU216HW,2013-01-26 17:56:00,
2013-01-26 12:01:00,19.1,8.8,30.33,WSW,248,0.7,3.4,64,0.00,,,0.00,WUHU216HW,2013-01-26 18:01:00,
2013-01-26 12:06:00,19.1,8.8,30.34,NNW,338,0.0,3.4,64,0.00,,,0.00,WUHU216HW,2013-01-26 18:06:00,
2013-01-26 12:11:00,19.4,9.1,30.33,WSW,248,0.4,3.4,64,0.00,,,0.00,WUHU216HW,2013-01-26 18:11:00,
2013-01-26 12:16:00,20.0,9.3,30.33,WNW,293,0.0,3.4,63,0.00,,,0.00,WUHU216HW,2013-01-26 18:16:00,
2013-01-26 12:21:00,20.3,9.6,30.33,NNW,338,0.7,2.0,63,0.00,,,0.00,WUHU216HW,2013-01-26 18:21:00,
2013-01-26 12:26:00,20.5,9.2,30.32,NNW,338,2.5,2.5,61,0.00,,,0.00,WUHU216HW,2013-01-26 18:26:00,
2013-01-26 12:31:00,20.5,9.2,30.32,North,0,0.9,2.5,61,0.00,,,0.00,WUHU216HW,2013-01-26 18:31:00,
2013-01-26 12:36:00,20.3,9.0,30.32,ESE,113,0.4,2.5,61,0.00,,,0.00,WUHU216HW,2013-01-26 18:36:00,
2013-01-26 12:41:00,20.7,9.0,30.32,WNW,293,1.1,2.5,60,0.00,,,0.00,WUHU216HW,2013-01-26 18:41:00,
2013-01-26 12:46:00,20.5,9.2,30.32,North,0,0.4,3.4,61,0.00,,,0.00,WUHU216HW,2013-01-26 18:46:00,
2013-01-26 12:51:00,20.5,9.2,30.32,NW,315,2.2,4.7,61,0.00,,,0.00,WUHU216HW,2013-01-26 18:51:00,
2013-01-26 12:56:00,20.9,9.2,30.32,SW,225,0.4,4.7,60,0.00,,,0.00,WUHU216HW,2013-01-26 18:56:00,
2013-01-26 13:01:00,21.6,10.2,30.32,NE,45,0.4,2.5,61,0.00,,,0.00,WUHU216HW,2013-01-26 19:01:00,
2013-01-26 13:06:00,22.0,9.8,30.32,North,0,0.0,2.5,59,0.00,,,0.00,WUHU216HW,2013-01-26 19:06:00,
2013-01-26 13:11:00,21.8,9.6,30.32,NNW,338,0.0,2.5,59,0.00,,,0.00,WUHU216HW,2013-01-26 19:11:00,
2013-01-26 13:16:00,21.8,9.6,30.32,West,270,1.1,2.9,59,0.00,,,0.00,WUHU216HW,2013-01-26 19:16:00,
2013-01-26 13:21:00,22.0,9.0,30.32,WNW,293,0.4,2.9,57,0.00,,,0.00,WUHU216HW,2013-01-26 19:21:00,
2013-01-26 13:26:00,22.0,9.8,30.32,WSW,248,2.5,3.1,59,0.00,,,0.00,WUHU216HW,2013-01-26 19:26:00,
2013-01-26 13:31:00,22.5,10.3,30.32,WSW,248,0.4,3.1,59,0.00,,,0.00,WUHU216HW,2013-01-26 19:31:00,
2013-01-26 13:36:00,22.7,10.1,30.32,NW,315,0.0,3.4,58,0.00,,,0.00,WUHU216HW,2013-01-26 19:36:00,
2013-01-26 13:41:00,22.5,9.9,30.32,West,270,1.1,3.4,58,0.00,,,0.00,WUHU216HW,2013-01-26 19:41:00,
2013-01-26 13:46:00,22.9,9.8,30.32,NW,315,2.9,3.4,57,0.00,,,0.00,WUHU216HW,2013-01-26 19:46:00,
2013-01-26 13:51:00,22.7,10.1,30.31,ESE,113,1.8,3.4,58,0.00,,,0.00,WUHU216HW,2013-01-26 19:51:00,
2013-01-26 13:56:00,23.4,10.7,30.31,SE,135,1.8,3.1,58,0.00,,,0.00,WUHU216HW,2013-01-26 19:56:00,
2013-01-26 14:01:00,23.6,10.1,30.31,ESE,113,1.1,2.9,56,0.00,,,0.00,WUHU216HW,2013-01-26 20:01:00,
2013-01-26 14:06:00,23.4,9.9,30.30,WSW,248,1.1,3.1,56,0.00,,,0.00,WUHU216HW,2013-01-26 20:06:00,
2013-01-26 14:11:00,23.4,10.4,30.31,West,270,0.0,3.1,57,0.00,,,0.00,WUHU216HW,2013-01-26 20:11:00,
2013-01-26 14:16:00,23.6,10.1,30.31,SE,135,1.6,2.5,56,0.00,,,0.00,WUHU216HW,2013-01-26 20:16:00,
2013-01-26 14:21:00,23.6,10.1,30.31,SW,225,1.1,2.5,56,0.00,,,0.00,WUHU216HW,2013-01-26 20:21:00,
2013-01-26 14:26:00,23.8,10.3,30.30,SE,135,2.0,3.4,56,0.00,,,0.00,WUHU216HW,2013-01-26 20:26:00,
2013-01-26 14:31:00,23.9,10.1,30.30,SSW,203,1.1,3.4,55,0.00,,,0.00,WUHU216HW,2013-01-26 20:31:00,
2013-01-26 14:36:00,23.9,10.1,30.32,West,270,2.0,2.9,55,0.00,,,0.00,WUHU216HW,2013-01-26 20:36:00,
2013-01-26 14:41:00,23.9,9.6,30.31,SSW,203,0.7,2.7,54,0.00,,,0.00,WUHU216HW,2013-01-26 20:41:00,
2013-01-26 14:46:00,23.6,8.9,30.32,WNW,293,0.4,2.7,53,0.00,,,0.00,WUHU216HW,2013-01-26 20:46:00,
2013-01-26 14:51:00,23.4,9.1,30.32,WNW,293,0.0,0.9,54,0.00,,,0.00,WUHU216HW,2013-01-26 20:51:00,
2013-01-26 14:56:00,23.4,8.7,30.32,West,270,1.1,2.0,53,0.00,,,0.00,WUHU216HW,2013-01-26 20:56:00,
2013-01-26 15:01:00,23.0,8.8,30.32,West,270,1.1,3.4,54,0.00,,,0.00,WUHU216HW,2013-01-26 21:01:00,
2013-01-26 15:06:00,23.2,8.9,30.32,West,270,0.2,3.4,54,0.00,,,0.00,WUHU216HW,2013-01-26 21:06:00,
2013-01-26 15:11:00,23.2,8.6,30.32,West,270,2.0,2.0,53,0.00,,,0.00,WUHU216HW,2013-01-26 21:11:00,
2013-01-26 15:16:00,23.2,8.9,30.32,West,270,0.2,2.5,54,0.00,,,0.00,WUHU216HW,2013-01-26 21:16:00,
2013-01-26 15:21:00,23.4,9.6,30.32,West,270,0.0,2.5,55,0.00,,,0.00,WUHU216HW,2013-01-26 21:21:00,
2013-01-26 15:26:00,24.1,10.2,30.31,ESE,113,0.4,1.1,55,0.00,,,0.00,WUHU216HW,2013-01-26 21:26:00,
2013-01-26 15:31:00,26.3,12.6,30.31,ESE,113,3.4,3.4,56,0.00,,,0.00,WUHU216HW,2013-01-26 21:31:00,
2013-01-26 15:36:00,29.2,13.3,30.31,ESE,113,2.5,3.4,51,0.00,,,0.00,WUHU216HW,2013-01-26 21:36:00,
2013-01-26 15:41:00,29.7,11.9,30.30,ESE,113,1.3,3.4,47,0.00,,,0.00,WUHU216HW,2013-01-26 21:41:00,
2013-01-26 15:46:00,28.3,10.5,30.30,SE,135,1.8,3.6,47,0.00,,,0.00,WUHU216HW,2013-01-26 21:46:00,
2013-01-26 15:51:00,26.3,9.2,30.30,SE,135,0.2,3.6,48,0.00,,,0.00,WUHU216HW,2013-01-26 21:51:00,
2013-01-26 15:56:00,25.0,8.5,30.30,SSE,158,0.7,2.2,49,0.00,,,0.00,WUHU216HW,2013-01-26 21:56:00,
2013-01-26 16:01:00,24.5,8.9,30.30,SSE,158,0.0,2.2,51,0.00,,,0.00,WUHU216HW,2013-01-26 22:01:00,
2013-01-26 16:06:00,24.1,9.0,30.30,SE,135,1.1,2.2,52,0.00,,,0.00,WUHU216HW,2013-01-26 22:06:00,
2013-01-26 16:11:00,23.8,8.6,30.31,SSE,158,1.6,3.4,52,0.00,,,0.00,WUHU216HW,2013-01-26 22:11:00,
2013-01-26 16:16:00,23.4,9.1,30.31,SSW,203,1.8,3.4,54,0.00,,,0.00,WUHU216HW,2013-01-26 22:16:00,
2013-01-26 16:21:00,23.0,8.8,30.30,SSE,158,1.8,3.1,54,0.00,,,0.00,WUHU216HW,2013-01-26 22:21:00,
2013-01-26 16:26:00,23.0,9.2,30.30,SSE,158,0.7,2.5,55,0.00,,,0.00,WUHU216HW,2013-01-26 22:26:00,
2013-01-26 16:31:00,22.7,8.8,30.30,SSE,158,0.9,1.8,55,0.00,,,0.00,WUHU216HW,2013-01-26 22:31:00,
2013-01-26 16:36:00,22.7,8.8,30.30,SE,135,1.3,2.5,55,0.00,,,0.00,WUHU216HW,2013-01-26 22:36:00,
2013-01-26 16:41:00,22.5,8.6,30.29,East,90,2.2,2.9,55,0.00,,,0.00,WUHU216HW,2013-01-26 22:41:00,
2013-01-26 16:46:00,22.3,8.5,30.29,SE,135,1.6,2.9,55,0.00,,,0.00,WUHU216HW,2013-01-26 22:46:00,
2013-01-26 16:51:00,22.3,8.9,30.29,ESE,113,1.6,2.9,56,0.00,,,0.00,WUHU216HW,2013-01-26 22:51:00,
2013-01-26 16:56:00,22.1,8.7,30.29,SE,135,0.4,2.9,56,0.00,,,0.00,WUHU216HW,2013-01-26 22:56:00,
2013-01-26 17:01:00,22.3,8.9,30.29,SE,135,0.4,2.7,56,0.00,,,0.00,WUHU216HW,2013-01-26 23:01:00,
2013-01-26 17:06:00,22.3,8.9,30.29,SSE,158,2.5,4.0,56,0.00,,,0.00,WUHU216HW,2013-01-26 23:06:00,
2013-01-26 17:11:00,22.5,9.1,30.29,SE,135,1.8,4.0,56,0.00,,,0.00,WUHU216HW,2013-01-26 23:11:00,
2013-01-26 17:16:00,22.3,8.9,30.29,SE,135,1.3,3.6,56,0.00,,,0.00,WUHU216HW,2013-01-26 23:16:00,
2013-01-26 17:21:00,22.3,9.3,30.29,SE,135,2.0,4.7,57,0.00,,,0.00,WUHU216HW,2013-01-26 23:21:00,
2013-01-26 17:26:00,22.3,9.3,30.29,SSW,203,2.0,4.7,57,0.00,,,0.00,WUHU216HW,2013-01-26 23:26:00,
2013-01-26 17:31:00,22.3,9.3,30.29,South,180,1.8,4.9,57,0.00,,,0.00,WUHU216HW,2013-01-26 23:31:00,
2013-01-26 17:36:00,22.3,9.3,30.29,SE,135,2.7,4.9,57,0.00,,,0.00,WUHU216HW,2013-01-26 23:36:00,
2013-01-26 17:41:00,22.3,9.3,30.29,SSE,158,3.4,4.0,57,0.00,,,0.00,WUHU216HW,2013-01-26 23:41:00,
2013-01-26 17:46:00,22.3,9.7,30.29,SSE,158,1.3,4.0,58,0.00,,,0.00,WUHU216HW,2013-01-26 23:46:00,
2013-01-26 17:51:00,22.3,9.7,30.29,SE,135,2.5,4.3,58,0.00,,,0.00,WUHU216HW,2013-01-26 23:51:00,
2013-01-26 17:56:00,22.3,9.7,30.29,SSE,158,2.2,4.3,58,0.00,,,0.00,WUHU216HW,2013-01-26 23:56:00,
2013-01-26 18:01:00,22.3,10.1,30.29,SE,135,3.8,6.3,59,0.00,,,0.00,WUHU216HW,2013-01-27 00:01:00,
2013-01-26 18:06:00,22.3,9.7,30.29,ESE,113,0.9,6.3,58,0.00,,,0.00,WUHU216HW,2013-01-27 00:06:00,
2013-01-26 18:11:00,22.3,10.1,30.29,SE,135,2.2,4.9,59,0.00,,,0.00,WUHU216HW,2013-01-27 00:11:00,
2013-01-26 18:16:00,22.5,10.3,30.29,ESE,113,1.1,3.8,59,0.00,,,0.00,WUHU216HW,2013-01-27 00:16:00,
2013-01-26 18:21:00,22.5,10.3,30.29,SSE,158,1.1,4.0,59,0.00,,,0.00,WUHU216HW,2013-01-27 00:21:00,
2013-01-26 18:26:00,22.5,10.3,30.29,ESE,113,1.3,4.0,59,0.00,,,0.00,WUHU216HW,2013-01-27 00:26:00,
2013-01-26 18:31:00,22.5,10.7,30.30,South,180,1.1,3.4,60,0.00,,,0.00,WUHU216HW,2013-01-27 00:31:00,
2013-01-26 18:36:00,22.7,10.8,30.29,SSE,158,0.7,2.7,60,0.00,,,0.00,WUHU216HW,2013-01-27 00:36:00,
2013-01-26 18:41:00,22.7,10.5,30.30,SE,135,1.3,3.4,59,0.00,,,0.00,WUHU216HW,2013-01-27 00:41:00,
2013-01-26 18:46:00,22.7,10.5,30.30,South,180,1.8,3.4,59,0.00,,,0.00,WUHU216HW,2013-01-27 00:46:00,
2013-01-26 18:51:00,22.7,10.8,30.29,SSE,158,3.4,3.4,60,0.00,,,0.00,WUHU216HW,2013-01-27 00:51:00,
2013-01-26 18:56:00,22.7,10.8,30.29,SSE,158,2.5,4.0,60,0.00,,,0.00,WUHU216HW,2013-01-27 00:56:00,
2013-01-26 19:01:00,22.7,10.8,30.30,SE,135,1.8,4.0,60,0.00,,,0.00,WUHU216HW,2013-01-27 01:01:00,
2013-01-26 19:06:00,22.7,10.8,30.30,SSE,158,0.9,3.1,60,0.00,,,0.00,WUHU216HW,2013-01-27 01:06:00,
2013-01-26 19:11:00,22.7,10.8,30.30,SSE,158,0.7,3.1,60,0.00,,,0.00,WUHU216HW,2013-01-27 01:11:00,
2013-01-26 19:16:00,22.7,10.8,30.30,SE,135,1.1,3.1,60,0.00,,,0.00,WUHU216HW,2013-01-27 01:16:00,
2013-01-26 19:21:00,22.7,10.8,30.30,SSE,158,2.0,3.8,60,0.00,,,0.00,WUHU216HW,2013-01-27 01:21:00,
2013-01-26 19:26:00,22.9,11.0,30.30,SE,135,1.6,3.8,60,0.00,,,0.00,WUHU216HW,2013-01-27 01:26:00,
2013-01-26 19:31:00,22.9,10.6,30.31,SSE,158,1.1,3.6,59,0.00,,,0.00,WUHU216HW,2013-01-27 01:31:00,
2013-01-26 19:36:00,22.7,10.5,30.30,SSE,158,1.8,3.1,59,0.00,,,0.00,WUHU216HW,2013-01-27 01:36:00,
2013-01-26 19:41:00,22.9,11.0,30.30,SE,135,1.8,3.8,60,0.00,,,0.00,WUHU216HW,2013-01-27 01:41:00,
2013-01-26 19:46:00,22.9,11.0,30.30,SSE,158,2.0,3.8,60,0.00,,,0.00,WUHU216HW,2013-01-27 01:46:00,
2013-01-26 19:51:00,22.9,11.3,30.29,SSE,158,2.2,3.8,61,0.00,,,0.00,WUHU216HW,2013-01-27 01:51:00,
2013-01-26 19:56:00,22.9,11.3,30.29,SSE,158,1.3,3.6,61,0.00,,,0.00,WUHU216HW,2013-01-27 01:56:00,
2013-01-26 20:01:00,23.0,11.5,30.29,ESE,113,4.9,4.9,61,0.00,,,0.00,WUHU216HW,2013-01-27 02:01:00,
2013-01-26 20:06:00,23.0,11.5,30.29,SE,135,3.1,7.8,61,0.00,,,0.00,WUHU216HW,2013-01-27 02:06:00,
2013-01-26 20:11:00,23.0,11.9,30.29,SE,135,3.1,7.8,62,0.00,,,0.00,WUHU216HW,2013-01-27 02:11:00,
2013-01-26 20:16:00,23.0,11.9,30.28,SE,135,2.7,6.0,62,0.00,,,0.00,WUHU216HW,2013-01-27 02:16:00,
2013-01-26 20:21:00,23.0,11.9,30.28,SE,135,3.6,5.1,62,0.00,,,0.00,WUHU216HW,2013-01-27 02:21:00,
2013-01-26 20:26:00,23.0,11.9,30.28,SE,135,3.4,5.1,62,0.00,,,0.00,WUHU216HW,2013-01-27 02:26:00,
2013-01-26 20:31:00,23.0,12.2,30.28,SE,135,2.2,4.9,63,0.00,,,0.00,WUHU216HW,2013-01-27 02:31:00,
2013-01-26 20:36:00,23.0,12.2,30.29,SSE,158,2.0,4.7,63,0.00,,,0.00,WUHU216HW,2013-01-27 02:36:00,
2013-01-26 20:41:00,23.2,12.4,30.29,SSW,203,1.8,4.7,63,0.00,,,0.00,WUHU216HW,2013-01-27 02:41:00,
2013-01-26 20:46:00,23.2,12.8,30.29,SSE,158,3.1,4.0,64,0.00,,,0.00,WUHU216HW,2013-01-27 02:46:00,
2013-01-26 20:51:00,23.2,12.8,30.28,ESE,113,1.8,3.8,64,0.00,,,0.00,WUHU216HW,2013-01-27 02:51:00,
2013-01-26 20:56:00,23.4,13.0,30.28,SSE,158,1.8,4.0,64,0.00,,,0.00,WUHU216HW,2013-01-27 02:56:00,
2013-01-26 21:01:00,23.4,13.0,30.28,SE,135,2.0,4.0,64,0.00,,,0.00,WUHU216HW,2013-01-27 03:01:00,
2013-01-26 21:06:00,23.4,13.0,30.28,South,180,1.8,4.0,64,0.00,,,0.00,WUHU216HW,2013-01-27 03:06:00,
2013-01-26 21:11:00,23.4,13.0,30.29,SW,225,2.7,4.0,64,0.00,,,0.00,WUHU216HW,2013-01-27 03:11:00,
2013-01-26 21:16:00,23.6,12.8,30.29,South,180,4.3,4.3,63,0.00,,,0.00,WUHU216HW,2013-01-27 03:16:00,
2013-01-26 21:21:00,23.6,12.8,30.30,SSE,158,2.9,4.3,63,0.00,,,0.00,WUHU216HW,2013-01-27 03:21:00,
2013-01-26 21:26:00,23.6,12.4,30.30,SSE,158,3.8,4.7,62,0.00,,,0.00,WUHU216HW,2013-01-27 03:26:00,
2013-01-26 21:31:00,23.6,12.8,30.30,SSE,158,3.8,4.7,63,0.00,,,0.00,WUHU216HW,2013-01-27 03:31:00,
2013-01-26 21:36:00,23.6,12.8,30.30,SSE,158,4.0,4.7,63,0.00,,,0.00,WUHU216HW,2013-01-27 03:36:00,
2013-01-26 21:41:00,23.6,12.4,30.29,SE,135,2.5,4.7,62,0.00,,,0.00,WUHU216HW,2013-01-27 03:41:00,
2013-01-26 21:46:00,23.6,12.4,30.29,SE,135,3.4,4.9,62,0.00,,,0.00,WUHU216HW,2013-01-27 03:46:00,
2013-01-26 21:51:00,23.6,12.8,30.29,SW,225,1.3,5.1,63,0.00,,,0.00,WUHU216HW,2013-01-27 03:51:00,
2013-01-26 21:56:00,23.6,12.8,30.29,SSW,203,2.7,5.8,63,0.00,,,0.00,WUHU216HW,2013-01-27 03:56:00,
2013-01-26 22:01:00,23.8,13.0,30.29,ESE,113,4.7,5.8,63,0.00,,,0.00,WUHU216HW,2013-01-27 04:01:00,
2013-01-26 22:06:00,23.8,13.3,30.28,SE,135,3.4,4.7,64,0.00,,,0.00,WUHU216HW,2013-01-27 04:06:00,
2013-01-26 22:11:00,23.6,13.2,30.28,SE,135,4.9,6.9,64,0.00,,,0.00,WUHU216HW,2013-01-27 04:11:00,
2013-01-26 22:16:00,23.6,13.5,30.27,ESE,113,3.6,6.9,65,0.00,,,0.00,WUHU216HW,2013-01-27 04:16:00,
2013-01-26 22:21:00,23.6,13.5,30.27,SE,135,5.1,6.3,65,0.00,,,0.00,WUHU216HW,2013-01-27 04:21:00,
2013-01-26 22:26:00,23.6,13.9,30.28,South,180,5.1,6.7,66,0.00,,,0.00,WUHU216HW,2013-01-27 04:26:00,
2013-01-26 22:31:00,23.6,13.9,30.28,SE,135,3.4,6.7,66,0.00,,,0.00,WUHU216HW,2013-01-27 04:31:00,
2013-01-26 22:36:00,23.6,13.9,30.28,SW,225,2.9,5.1,66,0.00,,,0.00,WUHU216HW,2013-01-27 04:36:00,
2013-01-26 22:41:00,23.6,13.9,30.29,ENE,68,3.4,6.9,66,0.00,,,0.00,WUHU216HW,2013-01-27 04:41:00,
2013-01-26 22:46:00,23.4,13.7,30.28,SE,135,4.5,6.9,66,0.00,,,0.00,WUHU216HW,2013-01-27 04:46:00,
2013-01-26 22:51:00,23.4,14.1,30.28,SE,135,5.6,6.0,67,0.00,,,0.00,WUHU216HW,2013-01-27 04:51:00,
2013-01-26 22:56:00,23.4,14.1,30.28,South,180,3.4,6.0,67,0.00,,,0.00,WUHU216HW,2013-01-27 04:56:00,
2013-01-26 23:00:00,23.4,14.1,30.28,SE,135,4.3,5.6,67,0.00,,,0.00,WUHU216HW,2013-01-27 05:00:00,
2013-01-26 23:01:00,23.4,14.1,30.28,ESE,113,4.9,5.6,67,0.00,,,0.00,WUHU216HW,2013-01-27 05:01:00,
2013-01-26 23:02:00,23.4,14.1,30.28,SSE,158,4.0,5.6,67,0.00,,,0.00,WUHU216HW,2013-01-27 05:02:00,
2013-01-26 23:07:00,23.4,14.4,30.27,SSE,158,5.1,5.6,68,0.00,,,0.00,WUHU216HW,2013-01-27 05:07:00,
2013-01-26 23:12:00,23.2,14.2,30.27,SSE,158,3.8,5.6,68,0.00,,,0.00,WUHU216HW,2013-01-27 05:12:00,
2013-01-26 23:17:00,23.0,14.0,30.27,SE,135,1.8,7.4,68,0.00,,,0.00,WUHU216HW,2013-01-27 05:17:00,
2013-01-26 23:22:00,23.0,14.0,30.27,SSW,203,5.1,7.4,68,0.00,,,0.00,WUHU216HW,2013-01-27 05:22:00,
2013-01-26 23:27:00,23.0,14.0,30.27,SE,135,2.7,5.6,68,0.00,,,0.00,WUHU216HW,2013-01-27 05:27:00,
2013-01-26 23:32:00,23.0,14.4,30.27,SSE,158,3.6,5.6,69,0.00,,,0.00,WUHU216HW,2013-01-27 05:32:00,
2013-01-26 23:37:00,23.0,14.4,30.27,SE,135,2.0,4.9,69,0.00,,,0.00,WUHU216HW,2013-01-27 05:37:00,
2013-01-26 23:42:00,23.0,14.4,30.27,SSE,158,4.0,5.8,69,0.00,,,0.00,WUHU216HW,2013-01-27 05:42:00,
2013-01-26 23:47:00,22.9,14.2,30.27,SE,135,2.7,5.8,69,0.00,,,0.00,WUHU216HW,2013-01-27 05:47:00,
2013-01-26 23:52:00,22.9,14.2,30.27,SE,135,3.6,4.9,69,0.00,,,0.00,WUHU216HW,2013-01-27 05:52:00,
2013-01-26 23:57:00,22.9,14.2,30.27,SSE,158,2.7,5.4,69,0.00,,,0.00,WUHU216HW,2013-01-27 05:57:00,